Date,TemperatureHighF,TemperatureAvgF,TemperatureLowF,DewpointHighF,DewpointAvgF,DewpointLowF,HumidityHigh,HumidityAvg,HumidityLow,PressureMaxIn,PressureMinIn,WindSpeedMaxMPH,WindSpeedAvgMPH,GustSpeedMaxMPH,PrecipitationSumIn
2013-1-1,31.0,19.7,11.0,-99.9,-99.9,-99.9,0,0,100,0.00,40.00,11,6,17,0.00
2013-1-2,32.0,28.0,18.0,-99.9,-99.9,-99.9,0,0,100,0.00,40.00,27,16,31,0.00
2013-1-3,32.0,22.2,11.0,-99.9,-99.9,-99.9,0,0,100,0.00,40.00,12,6,16,0.00
2013-1-4,37.0,19.8,9.0,-99.9,-99.9,-99.9,0,0,100,0.00,40.00,13,6,14,0.00
2013-1-5,39.0,27.0,16.0,-99.9,-99.9,-99.9,0,0,100,0.00,40.00,23,12,30,0.00
2013-1-6,39.0,23.0,9.0,-99.9,-99.9,-99.9,0,0,100,0.00,40.00,13,5,14,0.00
2013-1-7,50.0,30.5,18.0,-99.9,-99.9,-99.9,0,0,100,0.00,40.00,14,5,17,0.00
2013-1-8,48.0,33.2,18.0,-99.9,-99.9,-99.9,0,0,100,0.00,40.00,15,8,20,0.00
2013-1-9,53.0,37.6,27.0,-99.9,-99.9,-99.9,0,0,100,0.00,40.00,16,6,22,0.00
2013-1-10,42.0,35.9,31.0,-99.9,-99.9,-99.9,0,0,100,0.00,40.00,14,6,17,0.00
2013-1-11,37.0,28.2,14.0,-99.9,-99.9,-99.9,0,0,100,0.00,40.00,27,12,35,0.00
2013-1-12,20.0,12.8,5.0,-99.9,-99.9,-99.9,0,0,100,0.00,40.00,36,16,42,0.00
2013-1-13,22.0,10.7,2.0,-99.9,-99.9,-99.9,0,0,100,0.00,40.00,12,7,15,0.00
2013-1-14,25.0,11.5,2.0,-99.9,-99.9,-99.9,0,0,100,0.00,40.00,10,5,21,0.00
2013-1-15,32.0,16.9,2.0,-99.9,-99.9,-99.9,0,0,100,0.00,40.00,21,9,25,0.00
2013-1-16,48.0,36.8,31.0,-99.9,-99.9,-99.9,0,0,100,0.00,40.00,29,17,39,0.00
2013-1-17,55.0,36.4,23.0,-99.9,-99.9,-99.9,0,0,100,0.00,40.00,13,8,17,0.00
2013-1-18,60.0,38.9,23.0,-99.9,-99.9,-99.9,0,0,100,0.00,40.00,22,9,28,0.00
2013-1-19,55.0,39.7,31.0,-99.9,-99.9,-99.9,0,0,100,0.00,40.00,22,12,27,0.00
2013-1-20,39.0,29.3,20.0,-99.9,-99.9,-99.9,0,0,100,0.00,40.00,29,8,34,0.00
2013-1-21,41.0,26.5,16.0,-99.9,-99.9,-99.9,0,0,100,0.00,40.00,9,4,10,0.00
2013-1-22,57.0,34.2,18.0,-99.9,-99.9,-99.9,0,0,100,0.00,40.00,22,6,28,0.00
2013-1-23,44.0,31.1,23.0,-99.9,-99.9,-99.9,0,0,100,0.00,40.00,16,8,20,0.00
2013-1-24,44.0,30.7,22.0,-99.9,-99.9,-99.9,0,0,100,0.00,40.00,15,8,19,0.00
2013-1-25,59.0,40.3,23.0,-99.9,-99.9,-99.9,0,0,100,0.00,40.00,12,6,17,0.00
2013-1-26,62.0,43.5,29.0,-99.9,-99.9,-99.9,0,0,100,0.00,40.00,14,4,18,0.00
2013-1-27,57.0,44.4,39.0,-99.9,-99.9,-99.9,0,0,100,0.00,40.00,8,4,15,0.00
2013-1-28,42.0,35.7,31.0,-99.9,-99.9,-99.9,0,0,100,0.00,40.00,22,8,29,0.00
2013-1-29,32.0,29.0,25.0,-99.9,-99.9,-99.9,0,0,100,0.00,40.00,22,10,30,0.00
2013-1-30,35.0,24.3,14.0,-99.9,-99.9,-99.9,0,0,100,0.00,40.00,25,10,31,0.00
2013-1-31,32.0,26.1,20.0,-99.9,-99.9,-99.9,0,0,100,0.00,40.00,20,8,24,0.00
2013-2-1,48.0,34.2,23.0,-99.9,-99.9,-99.9,0,0,100,0.00,40.00,14,7,19,0.00
2013-2-2,51.0,38.0,29.0,-99.9,-99.9,-99.9,0,0,100,0.00,40.00,27,12,34,0.00
2013-2-3,53.0,36.8,23.0,-99.9,-99.9,-99.9,0,0,100,0.00,40.00,14,6,16,0.00
2013-2-4,59.0,39.8,27.0,-99.9,-99.9,-99.9,0,0,100,0.00,40.00,15,8,23,0.00
2013-2-5,59.0,42.5,29.0,-99.9,-99.9,-99.9,0,0,100,0.00,40.00,16,8,20,0.00
2013-2-6,60.0,45.7,39.0,-99.9,-99.9,-99.9,0,0,100,0.00,40.00,15,7,19,0.00
2013-2-7,53.0,40.5,31.0,-99.9,-99.9,-99.9,0,0,100,0.00,40.00,19,9,22,0.00
2013-2-8,57.0,42.3,29.0,-99.9,-99.9,-99.9,0,0,100,0.00,40.00,23,10,28,0.00
2013-2-9,57.0,37.1,27.0,-99.9,-99.9,-99.9,0,0,100,0.00,40.00,37,11,41,0.00
2013-2-10,32.0,27.8,23.0,-99.9,-99.9,-99.9,0,0,100,0.00,40.00,35,22,46,0.00
2013-2-11,33.0,22.4,14.0,-99.9,-99.9,-99.9,0,0,100,0.00,40.00,19,7,23,0.00
2013-2-12,42.0,24.2,9.0,-99.9,-99.9,-99.9,0,0,100,0.00,40.00,16,6,19,0.00
2013-2-13,48.0,34.0,20.0,-99.9,-99.9,-99.9,0,0,100,0.00,40.00,23,12,27,0.00
2013-2-14,35.0,31.1,20.0,-99.9,-99.9,-99.9,0,0,100,0.00,40.00,27,13,34,0.00
2013-2-15,32.0,23.9,16.0,-99.9,-99.9,-99.9,0,0,100,0.00,40.00,14,7,19,0.00
2013-2-16,53.0,38.6,25.0,-99.9,-99.9,-99.9,0,0,100,0.00,40.00,23,12,30,0.00
2013-2-17,51.0,38.0,29.0,-99.9,-99.9,-99.9,0,0,100,0.00,40.00,26,8,36,0.00
2013-2-18,39.0,33.6,25.0,-99.9,-99.9,-99.9,0,0,100,0.00,40.00,22,14,31,0.00
2013-2-19,42.0,29.3,18.0,-99.9,-99.9,-99.9,0,0,100,0.00,40.00,18,10,26,0.00
2013-2-20,27.0,23.1,20.0,-99.9,-99.9,-99.9,0,0,100,0.00,40.00,23,16,34,0.00
2013-2-21,23.0,21.7,20.0,-99.9,-99.9,-99.9,0,0,100,0.00,40.00,18,11,20,0.00
2013-2-22,35.0,21.1,7.0,-99.9,-99.9,-99.9,0,0,100,0.00,40.00,10,6,12,0.00
2013-2-23,37.0,23.5,11.0,-99.9,-99.9,-99.9,0,0,100,0.00,40.00,18,6,18,0.00
2013-2-24,37.0,33.1,27.0,-99.9,-99.9,-99.9,0,0,100,0.00,40.00,24,15,33,0.00
2013-2-25,39.0,27.5,14.0,-99.9,-99.9,-99.9,0,0,100,0.00,40.00,16,7,17,0.00
2013-2-26,37.0,22.0,9.0,-99.9,-99.9,-99.9,0,0,100,0.00,40.00,14,6,15,0.00
2013-2-27,39.0,32.7,27.0,-99.9,-99.9,-99.9,0,0,100,0.00,40.00,21,14,27,0.00
2013-2-28,42.0,31.0,16.0,-99.9,-99.9,-99.9,0,0,100,0.00,40.00,19,10,21,0.00
2013-3-1,42.0,33.8,23.0,-99.9,-99.9,-99.9,0,0,100,0.00,40.00,14,8,18,0.00
2013-3-2,57.0,41.9,32.0,-99.9,-99.9,-99.9,0,0,100,0.00,40.00,16,9,19,0.00
2013-3-3,64.0,47.4,35.0,-99.9,-99.9,-99.9,0,0,100,0.00,40.00,27,11,32,0.00
2013-3-4,46.0,36.5,27.0,-99.9,-99.9,-99.9,0,0,100,0.00,40.00,35,20,40,0.00
2013-3-5,44.0,31.4,23.0,-99.9,-99.9,-99.9,0,0,100,0.00,40.00,24,11,30,0.00
2013-3-6,50.0,35.1,25.0,-99.9,-99.9,-99.9,0,0,100,0.00,40.00,23,12,25,0.00
2013-3-7,57.0,39.3,27.0,-99.9,-99.9,-99.9,0,0,100,0.00,40.00,11,4,16,0.00
2013-3-8,55.0,42.0,31.0,-99.9,-99.9,-99.9,0,0,100,0.00,40.00,17,9,19,0.00
2013-3-9,44.0,34.9,29.0,-99.9,-99.9,-99.9,0,0,100,0.00,40.00,31,21,41,0.00
2013-3-10,31.0,25.6,22.0,-99.9,-99.9,-99.9,0,0,100,0.00,40.00,30,14,38,0.00
2013-3-11,44.0,31.6,20.0,-99.9,-99.9,-99.9,0,0,100,0.00,40.00,15,7,19,0.00
2013-3-12,44.0,36.4,32.0,-99.9,-99.9,-99.9,0,0,100,0.00,40.00,29,12,31,0.00
2013-3-13,64.0,44.2,29.0,-99.9,-99.9,-99.9,0,0,100,0.00,40.00,17,6,21,0.00
2013-3-14,71.0,53.5,39.0,-99.9,-99.9,-99.9,0,0,100,0.00,40.00,12,7,17,0.00
2013-3-15,75.0,54.4,39.0,-99.9,-99.9,-99.9,0,0,100,0.00,40.00,23,10,33,0.00
2013-3-16,50.0,42.6,35.0,-99.9,-99.9,-99.9,0,0,100,0.00,40.00,17,9,21,0.00
2013-3-17,55.0,40.8,32.0,-99.9,-99.9,-99.9,0,0,100,0.00,40.00,44,19,44,0.00
2013-3-18,50.0,38.7,27.0,-99.9,-99.9,-99.9,0,0,100,0.00,40.00,23,13,31,0.00
2013-3-19,48.0,36.7,29.0,-99.9,-99.9,-99.9,0,0,100,0.00,40.00,25,9,30,0.00
2013-3-20,53.0,36.6,20.0,-99.9,-99.9,-99.9,0,0,100,0.00,40.00,21,9,30,0.00
2013-3-21,46.0,38.2,29.0,-99.9,-99.9,-99.9,0,0,100,0.00,40.00,19,12,22,0.00
2013-3-22,51.0,39.5,31.0,-99.9,-99.9,-99.9,0,0,100,0.00,40.00,15,9,22,0.00
2013-3-23,35.0,27.2,23.0,-99.9,-99.9,-99.9,0,0,100,0.00,40.00,32,17,35,0.00
2013-3-24,32.0,22.2,11.0,-99.9,-99.9,-99.9,0,0,100,0.00,40.00,20,11,29,0.00
2013-3-25,35.0,23.6,14.0,-99.9,-99.9,-99.9,0,0,100,0.00,40.00,18,9,20,0.00
2013-3-26,42.0,30.1,18.0,-99.9,-99.9,-99.9,0,0,100,0.00,40.00,15,5,20,0.00
2013-3-27,59.0,43.2,31.0,-99.9,-99.9,-99.9,0,0,100,0.00,40.00,6,4,10,0.00
2013-3-28,68.0,49.8,33.0,-99.9,-99.9,-99.9,0,0,100,0.00,40.00,17,7,21,0.00
2013-3-29,71.0,53.3,39.0,-99.9,-99.9,-99.9,0,0,100,0.00,40.00,21,8,30,0.00
2013-3-30,62.0,50.9,41.0,-99.9,-99.9,-99.9,0,0,100,0.00,40.00,19,11,28,0.00
2013-3-31,69.0,49.0,32.0,-99.9,-99.9,-99.9,0,0,100,0.00,40.00,29,12,33,0.00
2013-4-1,57.0,43.1,32.0,-99.9,-99.9,-99.9,0,0,100,0.00,40.00,10,5,14,0.00
2013-4-2,57.0,43.9,32.0,-99.9,-99.9,-99.9,0,0,100,0.00,40.00,17,8,26,0.00
2013-4-3,59.0,47.2,37.0,-99.9,-99.9,-99.9,0,0,100,0.00,40.00,22,11,29,0.00
2013-4-4,68.0,50.8,32.0,-99.9,-99.9,-99.9,0,0,100,0.00,40.00,13,7,17,0.00
2013-4-5,78.0,60.3,42.0,-99.9,-99.9,-99.9,0,0,100,0.00,40.00,34,9,44,0.00
2013-4-6,69.0,58.8,44.0,-99.9,-99.9,-99.9,0,0,100,0.00,40.00,29,14,32,0.00
2013-4-7,69.0,57.3,48.0,-99.9,-99.9,-99.9,0,0,100,0.00,40.00,21,7,29,0.00
2013-4-8,73.0,48.5,33.0,-99.9,-99.9,-99.9,0,0,100,0.00,40.00,48,20,60,0.00
2013-4-9,33.0,22.9,20.0,-99.9,-99.9,-99.9,0,0,100,0.00,40.00,41,27,47,0.00
2013-4-10,27.0,24.0,20.0,-99.9,-99.9,-99.9,0,0,100,0.00,40.00,25,19,33,0.00
2013-4-11,37.0,28.2,18.0,-99.9,-99.9,-99.9,0,0,100,0.00,40.00,25,13,29,0.00
2013-4-12,46.0,38.3,32.0,-99.9,-99.9,-99.9,0,0,100,0.00,40.00,17,8,25,0.00
2013-4-13,64.0,47.3,31.0,-99.9,-99.9,-99.9,0,0,100,0.00,40.00,21,9,23,0.00
2013-4-14,51.0,45.6,35.0,-99.9,-99.9,-99.9,0,0,100,0.00,40.00,34,24,45,0.00
2013-4-15,46.0,36.0,31.0,-99.9,-99.9,-99.9,0,0,100,0.00,40.00,19,10,21,0.00
2013-4-16,37.0,33.6,31.0,-99.9,-99.9,-99.9,0,0,100,0.00,40.00,19,11,25,0.00
2013-4-17,35.0,31.4,29.0,-99.9,-99.9,-99.9,0,0,100,0.00,40.00,21,14,25,0.00
2013-4-18,33.0,30.2,27.0,-99.9,-99.9,-99.9,0,0,100,0.00,40.00,30,17,32,0.00
2013-4-19,55.0,41.2,25.0,-99.9,-99.9,-99.9,0,0,100,0.00,40.00,23,11,29,0.00
2013-4-20,62.0,46.7,33.0,-99.9,-99.9,-99.9,0,0,100,0.00,40.00,14,8,23,0.00
2013-4-21,66.0,51.9,39.0,-99.9,-99.9,-99.9,0,0,100,0.00,40.00,17,10,23,0.00
2013-4-22,46.0,37.2,29.0,-99.9,-99.9,-99.9,0,0,100,0.00,40.00,25,17,36,0.00
2013-4-23,44.0,34.8,29.0,-99.9,-99.9,-99.9,0,0,100,0.00,40.00,17,10,21,0.00
2013-4-24,57.0,40.9,25.0,-99.9,-99.9,-99.9,0,0,100,0.00,40.00,29,11,36,0.00
2013-4-25,71.0,51.9,31.0,-99.9,-99.9,-99.9,0,0,100,0.00,40.00,15,7,22,0.00
2013-4-26,73.0,56.8,39.0,-99.9,-99.9,-99.9,0,0,100,0.00,40.00,25,9,30,0.00
2013-4-27,80.0,60.8,41.0,-99.9,-99.9,-99.9,0,0,100,0.00,40.00,13,6,20,0.00
2013-4-28,80.0,62.0,42.0,-99.9,-99.9,-99.9,0,0,100,0.00,40.00,22,10,29,0.00
2013-4-29,82.0,64.9,50.0,-99.9,-99.9,-99.9,0,0,100,0.00,40.00,23,10,32,0.00
2013-4-30,62.0,56.5,44.0,-99.9,-99.9,-99.9,0,0,100,0.00,40.00,27,15,32,0.00
2013-5-1,42.0,34.1,32.0,-99.9,-99.9,-99.9,0,0,100,0.00,40.00,22,16,29,0.00
2013-5-2,53.0,40.0,29.0,-99.9,-99.9,-99.9,0,0,100,0.00,40.00,16,11,20,0.00
2013-5-3,60.0,44.2,29.0,-99.9,-99.9,-99.9,0,0,100,0.00,40.00,12,6,16,0.00
2013-5-4,59.0,46.5,32.0,-99.9,-99.9,-99.9,0,0,100,0.00,40.00,21,11,26,0.00
2013-5-5,66.0,49.7,31.0,-99.9,-99.9,-99.9,0,0,100,0.00,40.00,9,4,16,0.00
2013-5-6,71.0,58.4,42.0,-99.9,-99.9,-99.9,0,0,100,0.00,40.00,15,8,22,0.00
2013-5-7,69.0,58.7,46.0,-99.9,-99.9,-99.9,0,0,100,0.00,40.00,19,10,23,0.00
2013-5-8,71.0,59.7,48.0,-99.9,-99.9,-99.9,0,0,100,0.00,40.00,17,8,24,0.00
2013-5-9,68.0,57.9,50.0,-99.9,-99.9,-99.9,0,0,100,0.00,40.00,23,12,28,0.00
2013-5-10,73.0,57.4,44.0,-99.9,-99.9,-99.9,0,0,100,0.00,40.00,21,7,24,0.00
2013-5-11,68.0,57.4,46.0,-99.9,-99.9,-99.9,0,0,100,0.00,40.00,19,9,24,0.00
2013-5-12,78.0,62.6,44.0,-99.9,-99.9,-99.9,0,0,100,0.00,40.00,13,5,16,0.00
2013-5-13,91.0,73.3,51.0,-99.9,-99.9,-99.9,0,0,100,0.00,40.00,12,6,17,0.00
2013-5-14,93.0,75.9,55.0,-99.9,-99.9,-99.9,0,0,100,0.00,40.00,18,8,29,0.00
2013-5-15,82.0,69.8,59.0,-99.9,-99.9,-99.9,0,0,100,0.00,40.00,25,14,31,0.00
2013-5-16,77.0,58.2,57.0,-99.9,-99.9,-99.9,0,0,100,0.00,40.00,14,5,17,0.00
2013-5-17,86.0,69.3,59.0,-99.9,-99.9,-99.9,0,0,100,0.00,40.00,28,14,38,0.00
2013-5-18,80.0,68.1,51.0,-99.9,-99.9,-99.9,0,0,100,0.00,40.00,54,12,70,0.00
2013-5-19,59.0,56.1,53.0,-99.9,-99.9,-99.9,0,0,100,0.00,40.00,30,9,33,0.00
2013-5-20,59.0,54.2,51.0,-99.9,-99.9,-99.9,0,0,100,0.00,40.00,38,21,44,0.00
2013-5-21,62.0,54.9,46.0,-99.9,-99.9,-99.9,0,0,100,0.00,40.00,34,19,41,0.00
2013-5-22,68.0,56.2,48.0,-99.9,-99.9,-99.9,0,0,100,0.00,40.00,21,9,21,0.00
2013-5-23,69.0,59.6,50.0,-99.9,-99.9,-99.9,0,0,100,0.00,40.00,20,14,27,0.00
2013-5-24,78.0,63.9,55.0,-99.9,-99.9,-99.9,0,0,100,0.00,40.00,28,16,36,0.00
2013-5-25,87.0,71.0,60.0,-99.9,-99.9,-99.9,0,0,100,0.00,40.00,22,12,29,0.00
2013-5-26,84.0,71.9,62.0,-99.9,-99.9,-99.9,0,0,100,0.00,40.00,13,7,15,0.00
2013-5-27,71.0,64.9,59.0,-99.9,-99.9,-99.9,0,0,100,0.00,40.00,29,11,45,0.00
2013-5-28,80.0,64.3,53.0,-99.9,-99.9,-99.9,0,0,100,0.00,40.00,23,9,38,0.00
2013-5-29,69.0,61.1,55.0,-99.9,-99.9,-99.9,0,0,100,0.00,40.00,20,10,28,0.00
2013-5-30,73.0,61.3,50.0,-99.9,-99.9,-99.9,0,0,100,0.00,40.00,30,15,42,0.00
2013-5-31,68.0,57.8,46.0,-99.9,-99.9,-99.9,0,0,100,0.00,40.00,36,18,41,0.00
2013-6-1,66.0,57.1,51.0,-99.9,-99.9,-99.9,0,0,100,0.00,40.00,27,17,34,0.00
2013-6-2,77.0,61.0,42.0,-99.9,-99.9,-99.9,0,0,100,0.00,40.00,21,8,29,0.00
2013-6-3,86.0,67.1,53.0,-99.9,-99.9,-99.9,0,0,100,0.00,40.00,17,10,26,0.00
2013-6-4,75.0,65.0,59.0,-99.9,-99.9,-99.9,0,0,100,0.00,40.00,18,9,23,0.00
2013-6-5,66.0,56.9,50.0,-99.9,-99.9,-99.9,0,0,100,0.00,40.00,23,8,33,0.00
2013-6-6,73.0,61.2,48.0,-99.9,-99.9,-99.9,0,0,100,0.00,40.00,8,3,12,0.00
2013-6-7,80.0,64.6,51.0,-99.9,-99.9,-99.9,0,0,100,0.00,40.00,19,5,29,0.00
2013-6-8,75.0,65.1,57.0,-99.9,-99.9,-99.9,0,0,100,0.00,40.00,23,11,36,0.00
2013-6-9,82.0,66.7,53.0,-99.9,-99.9,-99.9,0,0,100,0.00,40.00,9,5,15,0.00
2013-6-10,95.0,76.6,60.0,-99.9,-99.9,-99.9,0,0,100,0.00,40.00,13,8,22,0.00
2013-6-11,89.0,77.2,64.0,-99.9,-99.9,-99.9,0,0,100,0.00,40.00,20,9,29,0.00
2013-6-12,84.0,71.2,60.0,-99.9,-99.9,-99.9,0,0,100,0.00,40.00,23,11,27,0.00
2013-6-13,78.0,65.8,55.0,-99.9,-99.9,-99.9,0,0,100,0.00,40.00,28,10,39,0.00
2013-6-14,82.0,73.0,66.0,-99.9,-99.9,-99.9,0,0,100,0.00,40.00,17,8,21,0.00
2013-6-15,80.0,70.9,62.0,-99.9,-99.9,-99.9,0,0,100,0.00,40.00,19,9,23,0.00
2013-6-16,89.0,71.7,62.0,-99.9,-99.9,-99.9,0,0,100,0.00,40.00,29,11,33,0.00
2013-6-17,80.0,69.1,55.0,-99.9,-99.9,-99.9,0,0,100,0.00,40.00,19,8,27,0.00
2013-6-18,86.0,72.3,57.0,-99.9,-99.9,-99.9,0,0,100,0.00,40.00,29,12,39,0.00
2013-6-19,84.0,73.5,60.0,-99.9,-99.9,-99.9,0,0,100,0.00,40.00,30,14,37,0.00
2013-6-20,84.0,72.1,64.0,-99.9,-99.9,-99.9,0,0,100,0.00,40.00,17,8,25,0.00
2013-6-22,77.0,69.4,60.0,-99.9,-99.9,-99.9,0,0,100,0.00,40.00,40,17,56,0.00
2013-6-23,80.0,70.1,59.0,-99.9,-99.9,-99.9,0,0,100,0.00,40.00,14,7,29,0.00
2013-6-24,86.0,75.5,66.0,-99.9,-99.9,-99.9,0,0,100,0.00,40.00,18,11,38,0.00
2013-6-25,91.0,77.5,68.0,-99.9,-99.9,-99.9,0,0,100,0.00,40.00,27,10,36,0.00
2013-6-26,96.0,79.1,59.0,-99.9,-99.9,-99.9,0,0,100,0.00,40.00,13,5,19,0.00
2013-6-27,87.0,78.6,68.0,-99.9,-99.9,-99.9,0,0,100,0.00,40.00,22,9,27,0.00
2013-6-28,87.0,77.2,64.0,-99.9,-99.9,-99.9,0,0,100,0.00,40.00,23,9,23,0.00
2013-6-29,84.0,73.8,62.0,-99.9,-99.9,-99.9,0,0,100,0.00,40.00,15,7,22,0.00
2013-6-30,80.0,70.4,57.0,-99.9,-99.9,-99.9,0,0,100,0.00,40.00,14,6,21,0.00
2013-7-1,80.0,70.2,62.0,-99.9,-99.9,-99.9,0,0,100,0.00,40.00,16,7,18,0.00
2013-7-2,80.0,69.4,60.0,-99.9,-99.9,-99.9,0,0,100,0.00,40.00,14,7,20,0.00
2013-7-3,87.0,73.8,59.0,-99.9,-99.9,-99.9,0,0,100,0.00,40.00,10,6,19,0.00
2013-7-4,93.0,76.4,60.0,-99.9,-99.9,-99.9,0,0,100,0.00,40.00,13,7,21,0.00
2013-7-5,89.0,76.7,60.0,-99.9,-99.9,-99.9,0,0,100,0.00,40.00,14,7,21,0.00
2013-7-6,93.0,76.7,66.0,-99.9,-99.9,-99.9,0,0,100,0.00,40.00,10,5,15,0.00
2013-7-7,91.0,78.7,68.0,-99.9,-99.9,-99.9,0,0,100,0.00,40.00,21,8,27,0.00
2013-7-8,91.0,73.3,62.0,-99.9,-99.9,-99.9,0,0,100,0.00,40.00,20,6,20,0.00
2013-7-9,95.0,80.5,66.0,-99.9,-99.9,-99.9,0,0,100,0.00,40.00,18,6,22,0.00
2013-7-10,86.0,72.5,66.0,-99.9,-99.9,-99.9,0,0,100,0.00,40.00,18,9,21,0.00
2013-7-11,91.0,77.2,66.0,-99.9,-99.9,-99.9,0,0,100,0.00,40.00,16,8,25,0.00
2013-7-12,96.0,81.6,69.0,-99.9,-99.9,-99.9,0,0,100,0.00,40.00,25,7,43,0.00
2013-7-13,93.0,79.6,68.0,-99.9,-99.9,-99.9,0,0,100,0.00,40.00,26,9,31,0.00
2013-7-14,80.0,71.9,66.0,-99.9,-99.9,-99.9,0,0,100,0.00,40.00,20,11,27,0.00
2013-7-15,80.0,72.1,66.0,-99.9,-99.9,-99.9,0,0,100,0.00,40.00,16,8,23,0.00
2013-7-16,82.0,71.4,62.0,-99.9,-99.9,-99.9,0,0,100,0.00,40.00,16,9,23,0.00
2013-7-17,84.0,74.1,64.0,-99.9,-99.9,-99.9,0,0,100,0.00,40.00,22,12,32,0.00
2013-7-18,91.0,81.3,66.0,-99.9,-99.9,-99.9,0,0,100,0.00,40.00,15,8,22,0.00
2013-7-19,82.0,75.6,68.0,-99.9,-99.9,-99.9,0,0,100,0.00,40.00,18,8,23,0.00
2013-7-20,87.0,72.6,60.0,-99.9,-99.9,-99.9,0,0,100,0.00,40.00,21,6,28,0.00
2013-7-21,87.0,74.7,60.0,-99.9,-99.9,-99.9,0,0,100,0.00,40.00,19,7,20,0.00
2013-7-22,91.0,77.9,66.0,-99.9,-99.9,-99.9,0,0,100,0.00,40.00,16,8,25,0.00
2013-7-23,87.0,74.1,64.0,-99.9,-99.9,-99.9,0,0,100,0.00,40.00,19,9,27,0.00
2013-7-24,86.0,71.0,62.0,-99.9,-99.9,-99.9,0,0,100,0.00,40.00,30,8,41,0.00
2013-7-25,80.0,70.1,62.0,-99.9,-99.9,-99.9,0,0,100,0.00,40.00,10,5,19,0.00
2013-7-26,82.0,69.7,62.0,-99.9,-99.9,-99.9,0,0,100,0.00,40.00,23,7,25,0.00
2013-7-27,68.0,62.4,57.0,-99.9,-99.9,-99.9,0,0,100,0.00,40.00,21,10,23,0.00
2013-7-28,62.0,60.5,60.0,-99.9,-99.9,-99.9,0,0,100,0.00,40.00,12,7,18,0.00
2013-7-29,77.0,67.1,60.0,-99.9,-99.9,-99.9,0,0,100,0.00,40.00,10,5,15,0.00
2013-7-30,87.0,73.8,62.0,-99.9,-99.9,-99.9,0,0,100,0.00,40.00,14,6,16,0.00
2013-7-31,84.0,72.3,64.0,-99.9,-99.9,-99.9,0,0,100,0.00,40.00,15,6,15,0.00
2013-8-1,86.0,72.9,66.0,-99.9,-99.9,-99.9,0,0,100,0.00,40.00,17,8,21,0.00
2013-8-2,82.0,71.5,64.0,-99.9,-99.9,-99.9,0,0,100,0.00,40.00,15,7,17,0.00
2013-8-3,73.0,68.4,66.0,-99.9,-99.9,-99.9,0,0,100,0.00,40.00,19,10,31,0.00
2013-8-4,82.0,72.1,64.0,-99.9,-99.9,-99.9,0,0,100,0.00,40.00,15,7,22,0.00
2013-8-5,86.0,75.1,66.0,-99.9,-99.9,-99.9,0,0,100,0.00,40.00,11,5,17,0.00
2013-8-6,86.0,73.8,62.0,-99.9,-99.9,-99.9,0,0,100,0.00,40.00,22,6,22,0.00
2013-8-7,77.0,68.1,60.0,-99.9,-99.9,-99.9,0,0,100,0.00,40.00,12,6,22,0.00
2013-8-8,78.0,69.0,62.0,-99.9,-99.9,-99.9,0,0,100,0.00,40.00,20,6,21,0.00
2013-8-9,84.0,69.6,55.0,-99.9,-99.9,-99.9,0,0,100,0.00,40.00,16,4,18,0.00
2013-8-10,84.0,71.9,59.0,-99.9,-99.9,-99.9,0,0,100,0.00,40.00,17,8,23,0.00
2013-8-11,87.0,72.1,64.0,-99.9,-99.9,-99.9,0,0,100,0.00,40.00,24,6,26,0.00
2013-8-12,84.0,71.7,64.0,-99.9,-99.9,-99.9,0,0,100,0.00,40.00,10,4,15,0.00
2013-8-13,84.0,69.8,62.0,-99.9,-99.9,-99.9,0,0,100,0.00,40.00,17,6,30,0.00
2013-8-14,84.0,70.9,60.0,-99.9,-99.9,-99.9,0,0,100,0.00,40.00,11,5,15,0.00
2013-8-15,84.0,67.5,62.0,-99.9,-99.9,-99.9,0,0,100,0.00,40.00,15,7,17,0.00
2013-8-16,80.0,70.7,66.0,-99.9,-99.9,-99.9,0,0,100,0.00,40.00,14,8,17,0.00
2013-8-17,78.0,68.8,66.0,-99.9,-99.9,-99.9,0,0,100,0.00,40.00,18,9,19,0.00
2013-8-18,84.0,72.6,68.0,-99.9,-99.9,-99.9,0,0,100,0.00,40.00,18,9,20,0.00
2013-8-19,93.0,72.1,60.0,-99.9,-99.9,-99.9,0,0,100,0.00,40.00,11,4,15,0.00
2013-8-20,96.0,79.3,62.0,-99.9,-99.9,-99.9,0,0,100,0.00,40.00,20,7,23,0.00
2013-8-21,93.0,77.5,64.0,-99.9,-99.9,-99.9,0,0,100,0.00,40.00,17,7,25,0.00
2013-8-22,82.0,72.7,66.0,-99.9,-99.9,-99.9,0,0,100,0.00,40.00,16,8,21,0.00
2013-8-23,87.0,75.7,68.0,-99.9,-99.9,-99.9,0,0,100,0.00,40.00,14,7,19,0.00
2013-8-24,96.0,77.8,62.0,-99.9,-99.9,-99.9,0,0,100,0.00,40.00,15,7,22,0.00
2013-8-25,96.0,81.3,66.0,-99.9,-99.9,-99.9,0,0,100,0.00,40.00,13,7,21,0.00
2013-8-26,98.0,82.1,69.0,-99.9,-99.9,-99.9,0,0,100,0.00,40.00,13,6,19,0.00
2013-8-27,96.0,77.4,66.0,-99.9,-99.9,-99.9,0,0,100,0.00,40.00,11,5,15,0.00
2013-8-28,96.0,88.9,75.0,-99.9,-99.9,-99.9,0,0,100,0.00,40.00,16,9,19,0.00
2013-8-29,100.0,80.8,62.0,-99.9,-99.9,-99.9,0,0,100,0.00,40.00,14,4,15,0.00
2013-8-30,95.0,77.4,66.0,-99.9,-99.9,-99.9,0,0,100,0.00,40.00,18,7,27,0.00
2013-8-31,95.0,76.1,62.0,-99.9,-99.9,-99.9,0,0,100,0.00,40.00,19,7,26,0.00
2013-9-1,86.0,73.9,62.0,-99.9,-99.9,-99.9,0,0,100,0.00,40.00,10,5,14,0.00
2013-9-2,91.0,75.6,60.0,-99.9,-99.9,-99.9,0,0,100,0.00,40.00,17,7,22,0.00
2013-9-3,96.0,78.9,64.0,-99.9,-99.9,-99.9,0,0,100,0.00,40.00,13,6,21,0.00
2013-9-4,95.0,80.7,66.0,-99.9,-99.9,-99.9,0,0,100,0.00,40.00,26,8,31,0.00
2013-9-5,95.0,79.8,69.0,-99.9,-99.9,-99.9,0,0,100,0.00,40.00,17,8,21,0.00
2013-9-6,102.0,82.6,64.0,-99.9,-99.9,-99.9,0,0,100,0.00,40.00,10,5,15,0.00
2013-9-7,100.0,80.3,64.0,-99.9,-99.9,-99.9,0,0,100,0.00,40.00,17,8,20,0.00
2013-9-8,98.0,80.0,64.0,-99.9,-99.9,-99.9,0,0,100,0.00,40.00,14,7,23,0.00
2013-9-9,91.0,78.0,66.0,-99.9,-99.9,-99.9,0,0,100,0.00,40.00,20,9,26,0.00
2013-9-10,82.0,71.4,62.0,-99.9,-99.9,-99.9,0,0,100,0.00,40.00,20,8,31,0.00
2013-9-11,73.0,68.2,64.0,-99.9,-99.9,-99.9,0,0,100,0.00,40.00,16,8,18,0.00
2013-9-12,78.0,70.3,66.0,-99.9,-99.9,-99.9,0,0,100,0.00,40.00,20,8,24,0.00
2013-9-13,68.0,61.3,57.0,-99.9,-99.9,-99.9,0,0,100,0.00,40.00,22,11,27,0.00
2013-9-14,80.0,66.0,60.0,-99.9,-99.9,-99.9,0,0,100,0.00,40.00,21,7,24,0.00
2013-9-15,68.0,62.3,59.0,-99.9,-99.9,-99.9,0,0,100,0.00,40.00,20,11,36,0.00
2013-9-16,59.0,57.9,55.0,-99.9,-99.9,-99.9,0,0,100,0.00,40.00,15,9,18,0.00
2013-9-17,87.0,70.2,57.0,-99.9,-99.9,-99.9,0,0,100,0.00,40.00,13,7,18,0.00
2013-9-18,68.0,63.2,59.0,-99.9,-99.9,-99.9,0,0,100,0.00,40.00,18,5,39,0.00
2013-9-19,68.0,60.6,44.0,-99.9,-99.9,-99.9,0,0,100,0.00,40.00,13,8,25,0.00
2013-9-20,69.0,53.4,41.0,-99.9,-99.9,-99.9,0,0,100,0.00,40.00,6,3,8,0.00
2013-9-21,91.0,62.6,25.0,-99.9,-99.9,-99.9,0,0,100,0.00,40.00,20,7,23,0.00
2013-9-22,84.0,66.5,41.0,-99.9,-99.9,-99.9,0,0,100,0.00,40.00,21,8,29,0.00
2013-9-23,71.0,57.6,44.0,-99.9,-99.9,-99.9,0,0,100,0.00,40.00,30,13,36,0.00
2013-9-24,82.0,61.1,42.0,-99.9,-99.9,-99.9,0,0,100,0.00,40.00,11,6,14,0.00
2013-9-25,86.0,65.1,48.0,-99.9,-99.9,-99.9,0,0,100,0.00,40.00,21,11,27,0.00
2013-9-26,77.0,64.2,53.0,-99.9,-99.9,-99.9,0,0,100,0.00,40.00,14,8,23,0.00
2013-9-27,62.0,54.4,48.0,-99.9,-99.9,-99.9,0,0,100,0.00,40.00,20,12,24,0.00
2013-9-28,69.0,52.9,42.0,-99.9,-99.9,-99.9,0,0,100,0.00,40.00,24,11,26,0.00
2013-9-29,82.0,59.5,42.0,-99.9,-99.9,-99.9,0,0,100,0.00,40.00,10,4,24,0.00
2013-9-30,84.0,65.7,48.0,-99.9,-99.9,-99.9,0,0,100,0.00,40.00,15,7,23,0.00
2013-10-1,75.0,64.1,55.0,-99.9,-99.9,-99.9,0,0,100,0.00,40.00,6,5,14,0.00
2013-10-2,78.0,61.7,50.0,-99.9,-99.9,-99.9,0,0,100,0.00,40.00,18,6,29,0.00
2013-10-3,59.0,54.0,53.0,-99.9,-99.9,-99.9,0,0,100,0.00,40.00,15,10,19,0.00
2013-10-4,53.0,42.6,37.0,-99.9,-99.9,-99.9,0,0,100,0.00,40.00,47,25,53,0.00
2013-10-5,48.0,40.1,35.0,-99.9,-99.9,-99.9,0,0,100,0.00,40.00,41,22,48,0.00
2013-10-6,68.0,50.9,37.0,-99.9,-99.9,-99.9,0,0,100,0.00,40.00,26,12,35,0.00
2013-10-7,80.0,56.9,37.0,-99.9,-99.9,-99.9,0,0,100,0.00,40.00,10,5,18,0.00
2013-10-8,77.0,58.0,42.0,-99.9,-99.9,-99.9,0,0,100,0.00,40.00,11,4,16,0.00
2013-10-9,69.0,57.0,44.0,-99.9,-99.9,-99.9,0,0,100,0.00,40.00,16,8,19,0.00
2013-10-10,77.0,56.2,44.0,-99.9,-99.9,-99.9,0,0,100,0.00,40.00,21,9,34,0.00
2013-10-11,59.0,51.2,42.0,-99.9,-99.9,-99.9,0,0,100,0.00,40.00,42,19,43,0.00
2013-10-12,60.0,48.3,39.0,-99.9,-99.9,-99.9,0,0,100,0.00,40.00,13,6,15,0.00
2013-10-13,66.0,54.4,42.0,-99.9,-99.9,-99.9,0,0,100,0.00,40.00,21,10,30,0.00
2013-10-14,60.0,52.8,41.0,-99.9,-99.9,-99.9,0,0,100,0.00,40.00,38,19,45,0.00
2013-10-15,46.0,41.3,35.0,-99.9,-99.9,-99.9,0,0,100,0.00,40.00,25,16,35,0.00
2013-10-16,55.0,41.2,31.0,-99.9,-99.9,-99.9,0,0,100,0.00,40.00,11,6,18,0.00
2013-10-17,50.0,41.5,31.0,-99.9,-99.9,-99.9,0,0,100,0.00,40.00,16,8,25,0.00
2013-10-18,50.0,40.7,32.0,-99.9,-99.9,-99.9,0,0,100,0.00,40.00,25,10,26,0.00
2013-10-19,66.0,45.7,31.0,-99.9,-99.9,-99.9,0,0,100,0.00,40.00,19,9,27,0.00
2013-10-20,57.0,48.0,37.0,-99.9,-99.9,-99.9,0,0,100,0.00,40.00,24,10,31,0.00
2013-10-21,59.0,45.0,33.0,-99.9,-99.9,-99.9,0,0,100,0.00,40.00,31,9,34,0.00
2013-10-22,64.0,53.0,42.0,-99.9,-99.9,-99.9,0,0,100,0.00,40.00,23,9,30,0.00
2013-10-23,66.0,50.2,35.0,-99.9,-99.9,-99.9,0,0,100,0.00,40.00,18,8,28,0.00
2013-10-24,57.0,44.6,33.0,-99.9,-99.9,-99.9,0,0,100,0.00,40.00,12,5,17,0.00
2013-10-25,71.0,50.1,37.0,-99.9,-99.9,-99.9,0,0,100,0.00,40.00,13,5,18,0.00
2013-10-26,66.0,49.6,39.0,-99.9,-99.9,-99.9,0,0,100,0.00,40.00,11,5,14,0.00
2013-10-27,75.0,52.6,37.0,-99.9,-99.9,-99.9,0,0,100,0.00,40.00,15,6,22,0.00
2013-10-28,51.0,40.8,37.0,-99.9,-99.9,-99.9,0,0,100,0.00,40.00,22,15,27,0.00
2013-10-29,41.0,38.5,37.0,-99.9,-99.9,-99.9,0,0,100,0.00,40.00,10,6,21,0.00
2013-10-30,59.0,43.8,37.0,-99.9,-99.9,-99.9,0,0,100,0.00,40.00,21,7,29,0.00
2013-10-31,60.0,46.3,33.0,-99.9,-99.9,-99.9,0,0,100,0.00,40.00,29,13,41,0.00
2013-11-1,57.0,46.7,35.0,-99.9,-99.9,-99.9,0,0,100,0.00,40.00,38,18,43,0.00
2013-11-2,64.0,43.8,27.0,-99.9,-99.9,-99.9,0,0,100,0.00,40.00,18,7,24,0.00
2013-11-3,57.0,43.4,35.0,-99.9,-99.9,-99.9,0,0,100,0.00,40.00,19,7,26,0.00
2013-11-4,50.0,41.8,35.0,-99.9,-99.9,-99.9,0,0,100,0.00,40.00,23,9,29,0.00
2013-11-5,42.0,35.5,25.0,-99.9,-99.9,-99.9,0,0,100,0.00,40.00,20,10,24,0.00
2013-11-6,51.0,35.0,23.0,-99.9,-99.9,-99.9,0,0,100,0.00,40.00,13,7,19,0.00
2013-11-7,59.0,42.9,29.0,-99.9,-99.9,-99.9,0,0,100,0.00,40.00,11,5,16,0.00
2013-11-8,68.0,47.0,33.0,-99.9,-99.9,-99.9,0,0,100,0.00,40.00,24,9,34,0.00
2013-11-9,62.0,45.1,35.0,-99.9,-99.9,-99.9,0,0,100,0.00,40.00,7,4,11,0.00
2013-11-10,68.0,46.2,33.0,-99.9,-99.9,-99.9,0,0,100,0.00,40.00,12,5,21,0.00
2013-11-11,37.0,33.8,32.0,-99.9,-99.9,-99.9,0,0,100,0.00,40.00,15,8,21,0.00
2013-11-12,55.0,42.8,32.0,-99.9,-99.9,-99.9,0,0,100,0.00,40.00,13,7,17,0.00
2013-11-13,69.0,47.1,32.0,-99.9,-99.9,-99.9,0,0,100,0.00,40.00,10,4,11,0.00
2013-11-14,62.0,51.2,46.0,-99.9,-99.9,-99.9,0,0,100,0.00,40.00,15,8,21,0.00
2013-11-15,66.0,49.7,41.0,-99.9,-99.9,-99.9,0,0,100,0.00,40.00,16,6,20,0.00
2013-11-16,60.0,46.9,39.0,-99.9,-99.9,-99.9,0,0,100,0.00,40.00,15,7,27,0.00
2013-11-17,51.0,44.0,33.0,-99.9,-99.9,-99.9,0,0,100,0.00,40.00,50,23,54,0.00
2013-11-18,62.0,48.7,27.0,-99.9,-99.9,-99.9,0,0,100,0.00,40.00,11,6,18,0.00
2013-11-19,53.0,43.9,32.0,-99.9,-99.9,-99.9,0,0,100,0.00,40.00,7,2,16,0.00
2013-11-20,64.0,48.6,33.0,-99.9,-99.9,-99.9,0,0,100,0.00,40.00,21,8,32,0.00
2013-11-21,31.0,22.3,18.0,-99.9,-99.9,-99.9,0,0,100,0.00,40.00,24,14,35,0.00
2013-11-22,37.0,23.2,14.0,-99.9,-99.9,-99.9,0,0,100,0.00,40.00,16,6,19,0.00
2013-11-23,37.0,29.0,23.0,-99.9,-99.9,-99.9,0,0,100,0.00,40.00,10,5,16,0.00
2013-11-24,41.0,32.8,25.0,-99.9,-99.9,-99.9,0,0,100,0.00,40.00,24,8,26,0.00
2013-11-25,48.0,37.6,29.0,-99.9,-99.9,-99.9,0,0,100,0.00,40.00,16,10,22,0.00
2013-11-26,42.0,33.5,27.0,-99.9,-99.9,-99.9,0,0,100,0.00,40.00,11,7,16,0.00
2013-11-27,60.0,45.5,29.0,-99.9,-99.9,-99.9,0,0,100,0.00,40.00,15,9,20,0.00
2013-11-28,48.0,36.9,27.0,-99.9,-99.9,-99.9,0,0,100,0.00,40.00,13,7,17,0.00
2013-11-29,55.0,37.5,29.0,-99.9,-99.9,-99.9,0,0,100,0.00,40.00,8,5,15,0.00
2013-11-30,59.0,41.0,29.0,-99.9,-99.9,-99.9,0,0,100,0.00,40.00,19,8,25,0.00
2013-12-1,59.0,43.0,29.0,-99.9,-99.9,-99.9,0,0,100,0.00,40.00,20,7,25,0.00
2013-12-2,64.0,49.5,39.0,-99.9,-99.9,-99.9,0,0,100,0.00,40.00,29,10,30,0.00
2013-12-3,57.0,40.0,23.0,-99.9,-99.9,-99.9,0,0,100,0.00,40.00,25,12,31,0.00
2013-12-4,23.0,16.2,9.0,-99.9,-99.9,-99.9,0,0,100,0.00,40.00,24,15,29,0.00
2013-12-5,20.0,12.4,5.0,-99.9,-99.9,-99.9,0,0,100,0.00,40.00,15,8,19,0.00
2013-12-6,18.0,9.6,5.0,-99.9,-99.9,-99.9,0,0,100,0.00,40.00,7,6,10,0.00
2013-12-7,16.0,10.5,4.0,-99.9,-99.9,-99.9,0,0,100,0.00,40.00,23,12,27,0.00
2013-12-8,22.0,14.2,9.0,-99.9,-99.9,-99.9,0,0,100,0.00,40.00,16,8,20,0.00
2013-12-9,31.0,21.2,7.0,-99.9,-99.9,-99.9,0,0,100,0.00,40.00,22,12,30,0.00
2013-12-10,42.0,28.7,16.0,-99.9,-99.9,-99.9,0,0,100,0.00,40.00,22,10,25,0.00
2013-12-11,42.0,28.3,16.0,-99.9,-99.9,-99.9,0,0,100,0.00,40.00,16,8,20,0.00
2013-12-12,57.0,33.2,18.0,-99.9,-99.9,-99.9,0,0,100,0.00,40.00,9,6,11,0.00
2013-12-13,46.0,31.4,20.0,-99.9,-99.9,-99.9,0,0,100,0.00,40.00,19,9,23,0.00
2013-12-14,50.0,36.8,27.0,-99.9,-99.9,-99.9,0,0,100,0.00,40.00,21,10,31,0.00
2013-12-15,57.0,43.4,32.0,-99.9,-99.9,-99.9,0,0,100,0.00,40.00,27,11,35,0.00
2013-12-16,60.0,43.2,31.0,-99.9,-99.9,-99.9,0,0,100,0.00,40.00,19,10,29,0.00
2013-12-17,59.0,47.8,33.0,-99.9,-99.9,-99.9,0,0,100,0.00,40.00,7,4,15,0.00
2013-12-18,68.0,46.8,35.0,-99.9,-99.9,-99.9,0,0,100,0.00,40.00,12,6,22,0.00
2013-12-19,37.0,29.4,16.0,-99.9,-99.9,-99.9,0,0,100,0.00,40.00,23,11,28,0.00
2013-12-20,32.0,19.5,14.0,-99.9,-99.9,-99.9,0,0,100,0.00,40.00,17,8,18,0.00
2013-12-21,44.0,30.8,16.0,-99.9,-99.9,-99.9,0,0,100,0.00,40.00,14,6,21,0.00
2013-12-22,42.0,28.4,18.0,-99.9,-99.9,-99.9,0,0,100,0.00,40.00,16,9,20,0.00
2013-12-23,33.0,18.9,2.0,-99.9,-99.9,-99.9,0,0,100,0.00,40.00,11,4,12,0.00
2013-12-24,42.0,33.4,18.0,-99.9,-99.9,-99.9,0,0,100,0.00,40.00,25,10,31,0.00
2013-12-25,44.0,33.8,27.0,-99.9,-99.9,-99.9,0,0,100,0.00,40.00,21,12,27,0.00
2013-12-26,53.0,36.3,25.0,-99.9,-99.9,-99.9,0,0,100,0.00,40.00,23,10,29,0.00
2013-12-27,62.0,41.2,29.0,-99.9,-99.9,-99.9,0,0,100,0.00,40.00,14,7,20,0.00
2013-12-28,55.0,33.9,18.0,-99.9,-99.9,-99.9,0,0,100,0.00,40.00,32,15,41,0.00
2013-12-29,39.0,26.5,14.0,-99.9,-99.9,-99.9,0,0,100,0.00,40.00,15,7,20,0.00
2013-12-30,48.0,37.2,27.0,-99.9,-99.9,-99.9,0,0,100,0.00,40.00,30,14,40,0.00
2013-12-31,57.0,41.3,29.0,-99.9,-99.9,-99.9,0,0,100,0.00,40.00,20,8,31,0.00
2014-1-1,44.0,33.5,27.0,-99.9,-99.9,-99.9,0,0,100,0.00,40.00,21,12,23,0.00
2014-1-2,46.0,32.8,22.0,-99.9,-99.9,-99.9,0,0,100,0.00,40.00,10,6,12,0.00